Latest Weather Observations for Hobart

IDT60801

Issued at 5:35 am EDT Friday 31 October 2014 (issued every 30 minutes, with the page automatically refreshed every 10 minutes)

About weather observations | Map of weather stations | Latest weather observations for TAS | Other Formats
Station Details ID: 094029 Name: HOBART (ELLERSLIE ROAD) Lat: -42.89 Lon: 147.33 Height: 50.5 m
Data from the previous 72 hours. | See also: Recent months at Hobart
Date/Time
EDT
Temp
°C
App
Temp
°C
Dew
Point
Rel
Hum
%
Delta-T
°C
Wind Press
QNH
hPa
Press
MSL
hPa
Rain
since 9 am
mm
Dir
 
Spd
km/h
Gust
km/h
Spd
kts
Gust
kts
31/05:30am 11.6 8.6 7.9 78 1.8 NNE 13 17 7 9 1005.0 1005.0 0.2
31/05:00am 11.5 9.0 8.3 81 1.6 NNE 11 15 6 8 1005.1 1005.1 0.2
31/04:30am 11.8 9.1 7.5 75 2.1 NNE 11 17 6 9 1005.4 1005.4 0.2
31/04:00am 12.0 9.3 7.3 73 2.3 NNE 11 15 6 8 1005.8 1005.8 0.2
31/03:30am 11.9 10.1 7.8 76 2.0 NNE 7 11 4 6 1006.1 1006.1 0.2
31/03:00am 12.0 9.8 7.7 75 2.1 NE 9 13 5 7 1006.2 1006.2 0.2
31/02:30am 12.0 10.3 7.7 75 2.1 NNE 6 9 3 5 1006.7 1006.7 0.2
31/02:00am 11.8 10.1 7.5 75 2.1 N 6 9 3 5 1007.0 1007.0 0.2
31/01:30am 12.0 9.8 7.7 75 2.1 NNE 9 13 5 7 1007.4 1007.4 0.2
31/01:00am 12.1 9.8 7.6 74 2.2 NNE 9 15 5 8 1007.8 1007.8 0.2
31/12:30am 12.1 9.8 7.6 74 2.2 N 9 13 5 7 1008.2 1008.3 0.2
31/12:00am 12.3 9.2 7.4 72 2.4 NNW 13 20 7 11 1008.3 1008.4 0.2
 
Date/Time
EDT
Temp
°C
App
Temp
°C
Dew
Point
Rel
Hum
%
Delta-T
°C
Wind Press
QNH
hPa
Press
MSL
hPa
Rain
since 9 am
mm
Dir
 
Spd
km/h
Gust
km/h
Spd
kts
Gust
kts
30/11:30pm 12.3 9.2 7.1 70 2.5 N 13 20 7 11 1008.3 1008.4 0.2
30/11:00pm 12.5 9.4 7.4 71 2.5 NW 13 20 7 11 1008.8 1008.9 0.2
30/10:30pm 13.0 9.3 6.1 63 3.3 NNW 15 20 8 11 1008.8 1008.9 0.2
30/10:00pm 13.3 9.9 5.7 60 3.6 N 13 19 7 10 1008.7 1008.8 0.2
30/09:30pm 13.6 8.9 5.0 56 4.0 N 19 24 10 13 1008.7 1008.8 0.2
30/09:00pm 13.6 8.8 4.8 55 4.1 N 19 30 10 16 1008.8 1008.9 0.2
30/08:30pm 13.6 9.5 4.5 54 4.2 NNW 15 24 8 13 1008.5 1008.6 0.2
30/08:00pm 13.7 10.6 5.7 58 3.8 NW 11 20 6 11 1008.4 1008.5 0.2
30/07:30pm 14.1 9.8 5.4 56 4.1 NNW 17 28 9 15 1008.2 1008.3 0.2
30/07:00pm 14.6 10.3 5.3 53 4.4 NW 17 24 9 13 1008.1 1008.2 0.2
30/06:30pm 14.8 10.1 5.3 53 4.5 NNW 19 26 10 14 1007.8 1007.8 0.2
30/06:00pm 15.2 10.7 5.9 54 4.5 NNW 19 26 10 14 1007.8 1007.8 0.2
30/05:30pm 16.2 11.3 4.3 45 5.6 W 19 39 10 21 1007.7 1007.7 0.2
30/05:00pm 17.5 13.9 4.8 43 6.1 W 13 24 7 13 1007.4 1007.4 0.2
30/04:30pm 17.5 13.1 4.5 42 6.2 WNW 17 30 9 16 1007.3 1007.3 0.2
30/04:00pm 18.1 12.7 4.5 40 6.5 W 22 35 12 19 1007.4 1007.4 0.0
30/03:30pm 17.9 14.1 5.9 45 5.9 W 15 35 8 19 1007.1 1007.1 0.0
30/03:00pm 15.5 13.6 9.1 65 3.3 ESE 9 17 5 9 1007.3 1007.3 0.0
30/02:30pm 14.7 11.4 9.7 72 2.6 SE 17 20 9 11 1007.0 1007.0 0.0
30/02:00pm 13.6 10.7 9.5 76 2.1 E 15 17 8 9 1007.0 1007.0 0.0
30/01:30pm 14.0 10.3 10.0 77 2.1 ESE 20 28 11 15 1006.8 1006.8 0.0
30/01:00pm 14.0 10.7 10.8 81 1.7 SE 19 24 10 13 1007.1 1007.1 0.0
30/12:30pm 12.7 10.5 9.4 80 1.7 E 11 17 6 9 1007.2 1007.2 0.0
30/12:00pm 12.4 8.9 10.1 86 1.2 SE 19 24 10 13 1007.2 1007.2 0.0
30/11:30am 12.6 9.1 10.3 86 1.2 SE 19 22 10 12 1007.4 1007.4 0.0
30/11:00am 12.4 8.5 9.5 82 1.5 SE 20 28 11 15 1007.5 1007.5 0.0
30/10:30am 13.9 10.8 7.4 65 3.2 S 13 17 7 9 1007.3 1007.3 0.0
30/10:00am 14.4 10.9 7.1 61 3.6 NW 15 22 8 12 1007.2 1007.2 0.0
30/09:30am 13.8 9.4 7.3 65 3.2 NW 20 30 11 16 1007.0 1007.0 0.0
30/09:00am 13.7 9.3 6.4 61 3.5 NNW 19 30 10 16 1007.0 1007.0 0.0
30/08:30am 13.7 9.3 6.4 61 3.5 NW 19 26 10 14 1007.0 1007.0 0.0
30/08:00am 13.1 9.8 6.4 64 3.2 NNW 13 19 7 10 1007.0 1007.0 0.0
30/07:30am 12.9 9.1 5.9 62 3.3 NNW 15 20 8 11 1006.8 1006.8 0.0
30/07:00am 12.6 10.2 6.8 68 2.8 NNE 9 13 5 7 1006.7 1006.7 0.0
30/06:30am 11.7 9.9 7.1 73 2.2 NNE 6 13 3 7 1006.5 1006.5 0.0
30/06:00am 11.5 6.6 6.9 73 2.2 NNW 22 33 12 18 1005.9 1005.9 0.0
30/05:30am 11.4 6.1 6.8 73 2.2 NNW 24 33 13 18 1005.8 1005.8 0.0
30/05:00am 11.7 6.3 6.4 70 2.5 NNW 24 33 13 18 1005.8 1005.8 0.0
30/04:30am 11.8 6.8 6.3 69 2.6 NNW 22 30 12 16 1005.9 1005.9 0.0
30/04:00am 12.2 7.5 6.1 66 2.9 N 20 30 11 16 1006.1 1006.1 0.0
30/03:30am 12.6 7.0 5.3 61 3.4 N 24 35 13 19 1005.9 1005.9 0.0
30/03:00am 13.0 6.8 4.5 56 3.9 N 26 39 14 21 1006.2 1006.2 0.0
30/02:30am 13.2 7.3 4.0 53 4.2 N 24 37 13 20 1005.9 1005.9 0.0
30/02:00am 13.2 7.8 4.5 55 4.0 NNW 22 33 12 18 1006.1 1006.1 0.0
30/01:30am 13.2 7.9 5.1 58 3.8 NNW 22 43 12 23 1006.4 1006.4 0.0
30/01:00am 13.1 7.6 5.9 61 3.4 NW 24 44 13 24 1006.5 1006.5 0.0
30/12:30am 13.6 7.9 5.1 56 4.0 NNW 24 39 13 21 1006.6 1006.6 0.0
30/12:00am 13.5 8.6 4.9 56 4.0 NW 20 35 11 19 1006.6 1006.6 0.0
 
Date/Time
EDT
Temp
°C
App
Temp
°C
Dew
Point
Rel
Hum
%
Delta-T
°C
Wind Press
QNH
hPa
Press
MSL
hPa
Rain
since 9 am
mm
Dir
 
Spd
km/h
Gust
km/h
Spd
kts
Gust
kts
29/11:30pm 14.0 8.6 4.5 52 4.4 NW 22 39 12 21 1006.7 1006.7 0.0
29/11:06pm 14.1 7.5 4.4 52 4.5 NW 28 46 15 25 1006.9 1006.9 0.0
29/11:00pm 14.1 7.2 4.4 52 4.5 NW 30 46 16 25 1006.8 1006.8 0.0
29/10:56pm 14.1 7.5 4.1 51 4.6 NW 28 46 15 25 1006.8 1006.8 0.0
29/10:30pm 13.8 7.9 5.6 57 3.9 NNW 26 37 14 20 1006.8 1006.8 0.0
29/10:00pm 14.0 8.4 5.6 57 4.0 NNW 24 39 13 21 1006.7 1006.7 0.0
29/09:30pm 14.3 9.4 5.2 54 4.3 NW 20 41 11 22 1006.8 1006.8 0.0
29/09:00pm 14.4 9.4 4.8 52 4.5 NW 20 32 11 17 1006.6 1006.6 0.0
29/08:39pm 14.6 8.0 4.3 50 4.8 NW 28 59 15 32 1006.5 1006.5 0.0
29/08:30pm 14.5 8.8 4.7 52 4.6 NW 24 41 13 22 1006.4 1006.4 0.0
29/08:00pm 14.9 9.7 5.5 53 4.5 NW 22 35 12 19 1006.3 1006.3 0.0
29/07:30pm 15.4 8.1 4.5 48 5.1 NW 32 52 17 28 1005.8 1005.8 0.0
29/07:08pm 15.7 9.1 4.1 46 5.4 NW 28 48 15 26 1005.7 1005.7 0.0
29/07:00pm 15.9 10.0 4.1 45 5.5 NW 24 44 13 24 1005.7 1005.7 0.0
29/06:35pm 16.5 9.8 3.9 43 5.9 NW 28 46 15 25 1005.6 1005.6 0.0
29/06:30pm 16.5 9.1 3.9 43 5.9 NNW 32 46 17 25 1005.6 1005.6 0.0
29/06:28pm 16.6 8.3 4.0 43 5.9 WNW 37 50 20 27 1005.5 1005.5 0.0
29/06:00pm 17.4 10.0 3.8 40 6.4 NW 32 61 17 33 1005.8 1005.8 0.0
29/05:30pm 18.6 11.3 4.4 39 6.8 NW 32 57 17 31 1005.8 1005.8 0.0
29/05:12pm 18.7 12.1 4.0 37 7.0 NNW 28 50 15 27 1006.0 1006.0 0.0
29/05:00pm 19.1 14.1 4.6 38 7.0 NNW 20 46 11 25 1006.1 1006.1 0.0
29/04:30pm 19.1 12.2 4.6 38 7.0 NNW 30 54 16 29 1005.7 1005.7 0.0
29/04:00pm 19.0 12.3 3.9 36 7.2 NW 28 52 15 28 1005.8 1005.8 0.0
29/03:30pm 18.8 10.8 3.9 37 7.1 NW 35 56 19 30 1005.9 1005.9 0.0
29/03:00pm 18.6 11.8 5.0 40 6.6 NNW 30 56 16 30 1006.0 1006.0 0.0
29/02:32pm 18.0 11.2 5.0 42 6.3 NNW 30 50 16 27 1006.1 1006.1 0.0
29/02:30pm 18.1 10.9 4.8 41 6.4 NNW 32 48 17 26 1006.2 1006.2 0.0
29/02:01pm 18.2 11.7 4.7 41 6.5 NNW 28 48 15 26 1006.5 1006.5 0.0
29/02:00pm 18.5 12.4 4.6 40 6.7 NNW 26 41 14 22 1006.4 1006.4 0.0
29/01:30pm 16.1 9.5 4.1 45 5.6 NNW 28 46 15 25 1007.0 1007.0 0.0
29/01:00pm 15.3 8.4 4.4 48 5.1 NNW 30 50 16 27 1007.1 1007.1 0.0
29/12:30pm 15.2 8.2 4.3 48 5.1 NNW 30 48 16 26 1007.5 1007.5 0.0
29/12:26pm 15.2 8.7 4.8 50 4.9 NNW 28 48 15 26 1007.5 1007.5 0.0
29/12:00pm 14.1 7.2 4.7 53 4.4 NNW 30 46 16 25 1007.8 1007.8 0.0
29/11:41am 13.6 7.2 5.0 56 4.0 NW 28 46 15 25 1008.2 1008.3 0.0
29/11:30am 13.6 8.4 5.3 57 3.9 NNW 22 33 12 18 1008.3 1008.4 0.0
29/11:00am 12.9 7.2 4.7 57 3.8 NNW 24 37 13 20 1008.7 1008.8 0.0
29/10:30am 12.3 6.5 4.4 58 3.6 N 24 37 13 20 1009.1 1009.2 0.0
29/10:00am 12.1 5.4 3.6 56 3.8 NNW 28 39 15 21 1009.3 1009.4 0.0
29/09:30am 11.6 3.1 2.9 55 3.8 NNW 37 54 20 29 1009.0 1009.1 0.0
29/09:27am 11.8 4.1 3.2 55 3.8 NNW 33 54 18 29 1009.1 1009.2 0.0
29/09:00am 12.1 4.0 3.3 55 3.9 NNW 35 52 19 28 1008.9 1009.0 5.8
29/08:30am 11.3 3.4 2.5 54 3.8 NNW 33 48 18 26 1009.0 1009.1 5.8
29/08:00am 11.1 3.2 2.3 54 3.8 NNW 33 52 18 28 1008.9 1009.0 5.8
29/07:31am 10.1 3.0 1.5 55 3.6 NNW 28 46 15 25 1008.8 1008.9 5.8
29/07:30am 10.1 3.4 1.5 55 3.6 NNW 26 41 14 22 1008.8 1008.9 5.8
29/07:00am 10.4 3.0 1.6 54 3.7 NNW 30 43 16 23 1008.9 1009.0 5.8
29/06:30am 9.1 2.4 1.7 60 3.1 NNW 26 39 14 21 1008.8 1008.9 5.8
29/06:00am 8.3 2.6 0.6 58 3.1 NW 20 28 11 15 1008.5 1008.6 5.8
29/05:30am 7.9 2.4 0.7 60 2.9 NW 19 26 10 14 1008.2 1008.3 5.8
29/05:00am 8.5 1.6 -0.1 54 3.4 NW 26 43 14 23 1008.1 1008.2 5.8
29/04:30am 8.6 2.4 -0.2 54 3.5 NNW 22 32 12 17 1007.9 1007.9 5.8
29/04:00am 7.9 3.4 -0.6 55 3.3 WSW 13 22 7 12 1008.2 1008.3 5.8
29/03:30am 7.8 4.0 -1.0 54 3.4 NNW 9 15 5 8 1007.8 1007.8 5.8
29/03:00am 7.6 4.1 -1.3 53 3.4 S 7 15 4 8 1007.7 1007.7 5.8
29/02:30am 8.0 3.3 -2.1 49 3.8 WSW 13 20 7 11 1007.6 1007.6 5.8
29/02:00am 8.3 2.0 -4.3 40 4.5 WSW 20 32 11 17 1007.5 1007.5 5.8
29/01:30am 8.4 3.0 -4.5 40 4.6 SW 15 32 8 17 1007.5 1007.5 5.8
29/01:00am 8.6 2.5 -3.8 41 4.5 SSW 19 30 10 16 1007.4 1007.4 5.8
29/12:30am 9.1 2.1 -3.3 41 4.6 SSW 24 37 13 20 1007.1 1007.1 5.8
29/12:00am 8.6 3.6 -1.2 50 3.8 WSW 15 35 8 19 1006.7 1006.7 5.8
 
Date/Time
EDT
Temp
°C
App
Temp
°C
Dew
Point
Rel
Hum
%
Delta-T
°C
Wind Press
QNH
hPa
Press
MSL
hPa
Rain
since 9 am
mm
Dir
 
Spd
km/h
Gust
km/h
Spd
kts
Gust
kts
28/11:30pm 7.6 3.7 0.9 62 2.7 NE 11 20 6 11 1006.1 1006.1 5.8
28/11:00pm 7.5 1.8 0.8 62 2.7 SW 20 39 11 21 1005.6 1005.6 5.8
28/10:30pm 7.3 0.1 0.8 63 2.6 SW 28 46 15 25 1004.7 1004.7 5.8
28/10:00pm 7.8 -1.1 0.9 61 2.8 WSW 37 65 20 35 1004.3 1004.3 5.6
28/09:34pm 7.2 0.1 1.3 66 2.4 W 28 48 15 26 1003.9 1003.9 5.6
28/09:30pm 6.8 0.6 2.2 72 1.9 WSW 24 48 13 26 1003.9 1003.9 5.6
28/09:00pm 7.6 -2.4 1.2 64 2.6 W 43 61 23 33 1003.1 1003.1 5.4
28/08:44pm 7.6 -0.8 1.8 67 2.4 WSW 35 57 19 31 1003.0 1003.0 5.2
28/08:38pm 7.6 1.3 1.8 67 2.4 W 24 28 13 15 1002.8 1002.8 5.2
28/08:30pm 7.6 -1.6 1.2 64 2.6 WSW 39 80 21 43 1002.2 1002.2 5.2
28/08:11pm 7.4 0.1 2.4 70 2.1 WSW 30 78 16 42 1002.4 1002.4 4.6
28/08:00pm 7.1 2.0 3.1 76 1.7 NW 19 33 10 18 1001.8 1001.8 4.4
28/07:47pm 6.8 0.9 3.8 81 1.3 W 24 32 13 17 1001.7 1001.7 4.2
28/07:35pm 7.9 -1.9 2.2 67 2.4 SW 43 74 23 40 1001.3 1001.3 3.4
28/07:30pm 9.3 -0.1 -0.2 51 3.8 W 39 72 21 39 1000.9 1000.9 3.2
28/07:26pm 9.9 2.4 -1.6 44 4.5 WSW 28 72 15 39 1000.5 1000.5 3.0
28/07:24pm 10.0 4.0 -1.5 44 4.5 WSW 20 48 11 26 1000.3 1000.3 3.0
28/07:00pm 10.5 -0.1 -3.2 38 5.2 W 43 72 23 39 999.6 999.6 3.0
28/06:40pm 10.0 1.4 -2.9 40 4.9 W 33 95 18 51 998.7 998.7 3.0
28/06:33pm 9.7 2.2 -1.6 45 4.4 W 28 48 15 26 998.8 998.8 3.0
28/06:30pm 9.6 2.2 -1.0 47 4.2 W 28 33 15 18 999.0 999.0 3.0
28/06:26pm 9.6 0.8 -1.0 47 4.2 WSW 35 59 19 32 999.1 999.1 3.0
28/06:24pm 9.6 0.5 -0.7 48 4.1 W 37 59 20 32 999.0 999.0 3.0
28/06:22pm 9.6 0.4 -1.0 47 4.2 WNW 37 50 20 27 998.9 998.9 3.0
28/06:00pm 9.1 0.9 0.2 53 3.6 WSW 33 61 18 33 998.4 998.4 3.0
28/05:59pm 9.4 1.7 0.0 52 3.8 WSW 30 61 16 33 998.7 998.7 3.0
28/05:57pm 9.7 2.7 -0.6 48 4.1 WSW 26 39 14 21 998.6 998.6 2.8
28/05:48pm 10.6 -0.6 -3.4 37 5.2 WNW 46 76 25 41 997.9 997.9 2.8
28/05:30pm 11.3 0.5 -5.5 30 6.0 WSW 43 61 23 33 997.3 997.3 2.8
28/05:29pm 11.2 -0.2 -5.3 31 5.9 WSW 46 61 25 33 997.1 997.1 2.8
28/05:00pm 10.9 -0.5 -2.2 40 5.1 W 48 80 26 43 996.6 996.6 2.8
28/04:30pm 11.8 2.0 -3.3 34 5.7 W 39 70 21 38 996.2 996.2 2.8
28/04:26pm 11.6 2.2 -2.9 36 5.6 WNW 37 69 20 37 996.2 996.2 2.8
28/04:23pm 11.1 2.0 -3.3 36 5.4 WSW 35 56 19 30 996.3 996.3 2.8
28/04:22pm 10.9 1.1 -3.3 37 5.3 WSW 39 56 21 30 996.1 996.1 2.8
28/04:00pm 10.6 0.5 0.1 48 4.3 W 43 72 23 39 996.0 996.0 2.8
28/03:39pm 11.8 2.8 -2.9 35 5.6 WNW 35 56 19 30 995.3 995.3 2.8
28/03:38pm 11.7 3.2 -3.5 34 5.7 WNW 32 44 17 24 995.4 995.4 2.8
28/03:30pm 10.6 -2.3 -2.3 40 5.0 W 56 82 30 44 995.6 995.6 2.8
28/03:09pm 11.4 -0.6 -3.6 35 5.6 W 50 87 27 47 994.8 994.8 2.8
28/03:05pm 11.1 0.8 -3.7 35 5.5 W 41 59 22 32 995.0 995.0 2.8
28/03:04pm 11.4 1.5 -3.6 35 5.6 W 39 56 21 30 994.9 994.9 2.8
28/03:00pm 11.2 -3.3 -4.4 33 5.8 W 63 82 34 44 994.8 994.8 2.8
28/02:44pm 10.3 2.3 0.3 50 4.1 W 32 82 17 44 995.1 995.1 2.8
28/02:30pm 11.4 5.6 -1.7 40 5.1 WNW 19 28 10 15 994.6 994.6 2.6
28/02:26pm 12.3 5.0 -2.8 35 5.8 NNW 26 33 14 18 993.9 993.9 2.6
28/02:00pm 10.7 0.2 -1.0 44 4.7 WNW 44 80 24 43 995.1 995.1 2.6
28/01:48pm 11.3 0.2 -2.6 37 5.3 W 46 72 25 39 994.3 994.3 2.6
28/01:47pm 11.7 1.6 -2.3 37 5.4 WNW 41 72 22 39 994.2 994.2 2.6
28/01:40pm 11.7 3.4 -1.6 39 5.3 NW 32 54 17 29 994.2 994.2 2.6
28/01:38pm 11.7 1.1 -3.8 33 5.8 WSW 43 67 23 36 993.9 993.9 2.6
28/01:36pm 11.4 2.8 0.0 45 4.7 NW 35 74 19 40 993.9 993.9 2.6
28/01:30pm 10.6 2.5 0.8 50 4.0 WNW 33 56 18 30 994.5 994.5 2.6
28/01:28pm 10.4 1.3 -0.8 46 4.4 WNW 37 56 20 30 994.4 994.4 2.6
28/01:25pm 10.8 0.4 -1.6 42 4.9 W 43 56 23 30 994.0 994.0 2.6
28/01:23pm 10.1 1.7 1.3 54 3.7 NW 35 83 19 45 994.2 994.2 2.6
28/01:05pm 11.1 3.7 -0.4 45 4.6 WNW 28 57 15 31 994.1 994.1 2.6
28/01:00pm 10.0 2.9 -1.1 46 4.4 WSW 26 39 14 21 994.1 994.1 2.6
28/12:36pm 8.5 1.3 0.9 59 3.1 WNW 28 72 15 39 994.1 994.1 2.0
28/12:30pm 8.3 2.9 2.4 66 2.5 W 20 43 11 23 994.5 994.5 1.6
28/12:00pm 8.6 1.3 0.2 55 3.4 WSW 28 52 15 28 994.3 994.3 1.4
28/11:41am 9.2 1.7 1.0 56 3.4 WNW 30 65 16 35 993.7 993.7 1.4
28/11:30am 9.9 3.8 0.1 50 4.0 W 22 43 12 23 993.5 993.5 1.4
28/11:00am 10.6 3.9 3.6 62 3.1 NW 28 48 15 26 993.6 993.6 1.4
28/10:30am 8.1 2.7 2.4 67 2.4 NW 20 26 11 14 994.2 994.2 1.4
28/10:18am 8.0 -0.6 0.3 58 3.1 W 35 56 19 30 994.2 994.2 1.2
28/10:12am 8.8 2.1 -0.8 51 3.7 SW 24 33 13 18 993.9 993.9 0.8
28/10:10am 9.3 -0.3 -1.4 47 4.1 W 39 70 21 38 993.8 993.8 0.8
28/10:01am 10.6 3.3 -0.2 47 4.4 NW 28 56 15 30 993.4 993.4 0.8
28/10:00am 10.9 4.0 0.3 48 4.4 NW 26 41 14 22 993.4 993.4 0.8
28/09:30am 9.2 1.7 1.0 56 3.4 W 30 63 16 34 993.8 993.8 0.8
28/09:00am 7.5 0.7 3.1 73 1.9 NW 28 52 15 28 993.6 993.6 14.6
28/08:30am 8.7 2.0 3.9 72 2.1 NW 28 41 15 22 992.7 992.7 14.4
28/08:00am 6.4 1.2 3.6 82 1.2 NW 20 33 11 18 993.1 993.1 14.2
28/07:30am 6.6 0.6 3.6 81 1.3 NW 24 35 13 19 992.5 992.5 13.0
28/07:00am 8.3 3.0 1.9 64 2.7 W 19 41 10 22 992.0 992.0 12.2
28/06:30am 7.5 2.2 3.1 73 1.9 NW 20 39 11 21 991.4 991.3 12.2
28/06:00am 7.8 1.8 3.4 74 1.9 WNW 24 39 13 21 991.7 991.7 12.2

Other Formats:

Comma delimited format used in spreadsheet applications
http://www.bom.gov.au/fwo/IDT60801/IDT60801.94970.axf

JavaScript Object Notation format (JSON) in row-major order
http://www.bom.gov.au/fwo/IDT60801/IDT60801.94970.json